This is the latest recevied weather packets stored in our database for station/object LA9UTA-13. If no packets are shown the sender has not sent any weather packets the latest 10 day(s).
| Time | Temp. | Humidity | Pressure | Rain* | Wind** | Luminosity | Snow |
|---|---|---|---|---|---|---|---|
| 1788088209 | 18.33° C | 78% | 1001.3 hPa | 0 mm | - | 362 W/m² | - |
| 1788087009 | 17.22° C | 81% | 1001.4 hPa | 0 mm | - | 432 W/m² | - |
| 1788084609 | 16.11° C | 85% | 1000.4 hPa | 0 mm | - | 238 W/m² | - |
| 1788083408 | 16.11° C | 86% | 1000.4 hPa | 0 mm | - | 143 W/m² | - |
| 1788082209 | 16.11° C | 85% | 1000.4 hPa | 0 mm | - | 198 W/m² | - |
| 1788081009 | 16.67° C | 83% | 1000.4 hPa | 0 mm | - | 263 W/m² | - |
| 1788079808 | 15.56° C | 91% | 1000.5 hPa | 0 mm | - | 142 W/m² | - |
| 1788077408 | 15.56° C | 90% | 1000.5 hPa | 0 mm | - | 83 W/m² | - |
| 1788076208 | 15° C | 91% | 1000.5 hPa | 0 mm | - | 133 W/m² | - |
| 1788073809 | 14.44° C | 95% | 1000.6 hPa | 0 mm | - | 27 W/m² | - |
| 1788072609 | 14.44° C | 95% | 1000.6 hPa | 0 mm | - | 47 W/m² | - |
| 1788071410 | 13.89° C | 95% | 1000.6 hPa | 0 mm | - | 20 W/m² | - |
| 1788070209 | 13.89° C | 96% | 1000.7 hPa | 0.25 mm | - | 14 W/m² | - |
| 1788069009 | 13.89° C | 96% | 1000.7 hPa | 0.25 mm | - | 13 W/m² | - |
| 1788067809 | 13.89° C | 96% | 999.7 hPa | 0.25 mm | - | 7 W/m² | - |
| 1788066610 | 13.89° C | 96% | 999.7 hPa | 0 mm | - | 6 W/m² | - |
| 1788065408 | 13.89° C | 96% | 999.7 hPa | 0 mm | - | 8 W/m² | - |
| 1788061809 | 13.89° C | 96% | 999.7 hPa | 0 mm | - | 0 W/m² | - |
| 1788039009 | 13.89° C | 95% | 1000.6 hPa | 0.51 mm | - | 0 W/m² | - |
| 1788037808 | 13.89° C | 95% | 999.6 hPa | 1.78 mm | - | 0 W/m² | - |
| 1788035409 | 13.89° C | 95% | 1000.6 hPa | 1.27 mm | - | 0 W/m² | - |
| 1788034209 | 14.44° C | 94% | 1000.6 hPa | 0 mm | - | 0 W/m² | - |
| 1788029408 | 14.44° C | 92% | 1000.6 hPa | 0 mm | - | 0 W/m² | - |
| 1788028209 | 15° C | 93% | 1000.6 hPa | 0 mm | - | 2 W/m² | - |
| 1788025810 | 15° C | 92% | 1000.5 hPa | 0 mm | - | 9 W/m² | - |
* Rain latest hour (hover to see other rain measurements)
** Current wind speed in m/s (hover to see current wind gust speed)